Akinada Bridge — H9PN — position and weather

sailwx.info

Track history (hours):
 
Tides and Currents Weather Stations Pressure Air Temp Water Temp Dewpoint Dewpoint Depression Visibility Wind Speed Wind Dir Waves Ship Positions

Akinada Bridge

Last reported at 2017-Sep-20 00:30 UTC. Time now 2017-Sep-20 00:26 UTC.
Position N 01°16' E 103°47'.

Length 284.7 m; beam 40 m.

Type: Cargo ship. MMSI: 352675000.

Date/timePositionNaut miles runAvg speedWind from/ knotsBaromVisibWave heightAir tempDewpointWater temp
2017-Sep-20 00:30N 01°16' E 103°47'0 0.0
2017-Sep-20 00:00N 01°16' E 103°47'0 0.0
2017-Sep-19 23:30N 01°16' E 103°47'0 0.0
2017-Sep-19 23:00N 01°16' E 103°47'0 0.0
2017-Sep-19 22:30N 01°16' E 103°47'0 0.0
2017-Sep-19 22:00N 01°16' E 103°47'0 0.0
2017-Sep-19 21:30N 01°16' E 103°47'1121.4
2017-Sep-19 21:00N 01°14' E 103°57'815.5
2017-Sep-19 20:31N 01°11' E 103°50'4 7.1
2017-Sep-19 20:01N 01°13' E 103°48'3 5.9
2017-Sep-19 19:31N 01°16' E 103°47'0 0.0
2017-Sep-19 19:01N 01°16' E 103°47'0 0.0
2017-Sep-19 18:31N 01°16' E 103°47'0 0.0
2017-Sep-19 17:57N 01°16' E 103°47'0 0.0
2017-Sep-19 17:27N 01°16' E 103°47'0 0.0
2017-Sep-19 16:58N 01°16' E 103°47'0 0.0
2017-Sep-19 16:31N 01°16' E 103°47'0 0.0
2017-Sep-19 16:01N 01°16' E 103°47'0 0.0
2017-Sep-19 15:31N 01°16' E 103°47'0 0.0
2017-Sep-19 15:01N 01°16' E 103°47'0 0.0
2017-Sep-19 14:31N 01°16' E 103°47'0 0.0
2017-Sep-19 14:01N 01°16' E 103°47'0 0.0
2017-Sep-19 13:31N 01°16' E 103°47'0 0.0
2017-Sep-19 13:01N 01°16' E 103°47'0 0.0
2017-Sep-19 12:31N 01°16' E 103°47'0 0.0
2017-Sep-19 12:01N 01°16' E 103°47'0 0.0
2017-Sep-19 11:31N 01°16' E 103°47'0 0.0
2017-Sep-19 11:00N 01°16' E 103°47'0 0.0
2017-Sep-19 10:30N 01°16' E 103°47'0 0.0
2017-Sep-19 09:57N 01°16' E 103°47'0 0.0
2017-Sep-19 09:30N 01°16' E 103°47'0 0.0
2017-Sep-19 09:00N 01°16' E 103°47'0 0.0
2017-Sep-19 08:30N 01°16' E 103°47'0 0.0
2017-Sep-19 08:00N 01°16' E 103°47'0 0.0
2017-Sep-19 07:30N 01°16' E 103°47'0 0.0
2017-Sep-19 07:00N 01°16' E 103°47'0 0.0
2017-Sep-19 06:24N 01°16' E 103°47'0 0.0
2017-Sep-19 05:57N 01°16' E 103°47'0 0.0
2017-Sep-19 05:24N 01°16' E 103°47'0 0.0
2017-Sep-19 05:00N 01°16' E 103°47'0 0.0
2017-Sep-19 04:30N 01°16' E 103°47'0 0.0
2017-Sep-19 04:00N 01°16' E 103°47'0 0.0
2017-Sep-19 03:31N 01°16' E 103°47'0 0.0
2017-Sep-19 03:00N 01°16' E 103°47'0 0.0
2017-Sep-19 02:30N 01°16' E 103°47'0 0.0
2017-Sep-19 02:00N 01°16' E 103°47'0 0.0
2017-Sep-19 01:30N 01°16' E 103°47'0 0.9
2017-Sep-19 01:01N 01°16' E 103°47'1 2.4
2017-Sep-19 00:31N 01°15' E 103°46'4 7.9
2017-Sep-19 00:00N 01°14' E 103°42'510.0
2017-Sep-18 23:30N 01°12' E 103°37'4 7.2
2017-Sep-18 23:00N 01°11' E 103°34'2 4.6
2017-Sep-18 22:30N 01°11' E 103°32'3 6.4
2017-Sep-18 22:00N 01°10' E 103°29'3 6.7
2017-Sep-18 21:30N 01°11' E 103°26'4 6.8
2017-Sep-18 20:59N 01°13' E 103°23'3 6.6
2017-Sep-18 20:30N 01°15' E 103°21'3 6.5
2017-Sep-18 20:00N 01°18' E 103°18'  
Track history (hours):
 
Tides and Currents Weather Stations Pressure Air Temp Water Temp Dewpoint Dewpoint Depression Visibility Wind Speed Wind Dir Waves Ship Positions

Akinada Bridge

Last reported at 2017-Sep-20 00:30 UTC. Time now 2017-Sep-20 00:26 UTC.
Position N 01°16' E 103°47'.

Length 284.7 m; beam 40 m.

Type: Cargo ship. MMSI: 352675000.

Date/timePositionNaut miles runAvg speedWind from/ knotsBaromVisibWave heightAir tempDewpointWater temp
2017-Sep-20 00:30N 01°16' E 103°47'0 0.0
2017-Sep-20 00:00N 01°16' E 103°47'0 0.0
2017-Sep-19 23:30N 01°16' E 103°47'0 0.0
2017-Sep-19 23:00N 01°16' E 103°47'0 0.0
2017-Sep-19 22:30N 01°16' E 103°47'0 0.0
2017-Sep-19 22:00N 01°16' E 103°47'0 0.0
2017-Sep-19 21:30N 01°16' E 103°47'1121.4
2017-Sep-19 21:00N 01°14' E 103°57'815.5
2017-Sep-19 20:31N 01°11' E 103°50'4 7.1
2017-Sep-19 20:01N 01°13' E 103°48'3 5.9
2017-Sep-19 19:31N 01°16' E 103°47'0 0.0
2017-Sep-19 19:01N 01°16' E 103°47'0 0.0
2017-Sep-19 18:31N 01°16' E 103°47'0 0.0
2017-Sep-19 17:57N 01°16' E 103°47'0 0.0
2017-Sep-19 17:27N 01°16' E 103°47'0 0.0
2017-Sep-19 16:58N 01°16' E 103°47'0 0.0
2017-Sep-19 16:31N 01°16' E 103°47'0 0.0
2017-Sep-19 16:01N 01°16' E 103°47'0 0.0
2017-Sep-19 15:31N 01°16' E 103°47'0 0.0
2017-Sep-19 15:01N 01°16' E 103°47'0 0.0
2017-Sep-19 14:31N 01°16' E 103°47'0 0.0
2017-Sep-19 14:01N 01°16' E 103°47'0 0.0
2017-Sep-19 13:31N 01°16' E 103°47'0 0.0
2017-Sep-19 13:01N 01°16' E 103°47'0 0.0
2017-Sep-19 12:31N 01°16' E 103°47'0 0.0
2017-Sep-19 12:01N 01°16' E 103°47'0 0.0
2017-Sep-19 11:31N 01°16' E 103°47'0 0.0
2017-Sep-19 11:00N 01°16' E 103°47'0 0.0
2017-Sep-19 10:30N 01°16' E 103°47'0 0.0
2017-Sep-19 09:57N 01°16' E 103°47'0 0.0
2017-Sep-19 09:30N 01°16' E 103°47'0 0.0
2017-Sep-19 09:00N 01°16' E 103°47'0 0.0
2017-Sep-19 08:30N 01°16' E 103°47'0 0.0
2017-Sep-19 08:00N 01°16' E 103°47'0 0.0
2017-Sep-19 07:30N 01°16' E 103°47'0 0.0
2017-Sep-19 07:00N 01°16' E 103°47'0 0.0
2017-Sep-19 06:24N 01°16' E 103°47'0 0.0
2017-Sep-19 05:57N 01°16' E 103°47'0 0.0
2017-Sep-19 05:24N 01°16' E 103°47'0 0.0
2017-Sep-19 05:00N 01°16' E 103°47'0 0.0
2017-Sep-19 04:30N 01°16' E 103°47'0 0.0
2017-Sep-19 04:00N 01°16' E 103°47'0 0.0
2017-Sep-19 03:31N 01°16' E 103°47'0 0.0
2017-Sep-19 03:00N 01°16' E 103°47'0 0.0
2017-Sep-19 02:30N 01°16' E 103°47'0 0.0
2017-Sep-19 02:00N 01°16' E 103°47'0 0.0
2017-Sep-19 01:30N 01°16' E 103°47'0 0.9
2017-Sep-19 01:01N 01°16' E 103°47'1 2.4
2017-Sep-19 00:31N 01°15' E 103°46'4 7.9
2017-Sep-19 00:00N 01°14' E 103°42'510.0
2017-Sep-18 23:30N 01°12' E 103°37'4 7.2
2017-Sep-18 23:00N 01°11' E 103°34'2 4.6
2017-Sep-18 22:30N 01°11' E 103°32'3 6.4
2017-Sep-18 22:00N 01°10' E 103°29'3 6.7
2017-Sep-18 21:30N 01°11' E 103°26'4 6.8
2017-Sep-18 20:59N 01°13' E 103°23'3 6.6
2017-Sep-18 20:30N 01°15' E 103°21'3 6.5
2017-Sep-18 20:00N 01°18' E 103°18'  

Dump ship's entire track history